sensor_id;sensor_type;location;lat;lon;timestamp;P1;durP1;ratioP1;P2;durP2;ratioP2
42682;SDS011;28293;50.930;3.464;2022-10-01T00:00:58;9.23;;;7.20;;
42682;SDS011;28293;50.930;3.464;2022-10-01T00:03:25;10.63;;;7.28;;
42682;SDS011;28293;50.930;3.464;2022-10-01T00:06:02;10.25;;;7.20;;
42682;SDS011;28293;50.930;3.464;2022-10-01T00:08:28;9.48;;;7.45;;
42682;SDS011;28293;50.930;3.464;2022-10-01T00:10:55;9.63;;;7.03;;
42682;SDS011;28293;50.930;3.464;2022-10-01T00:13:22;9.82;;;7.40;;
42682;SDS011;28293;50.930;3.464;2022-10-01T00:15:47;8.75;;;7.18;;
42682;SDS011;28293;50.930;3.464;2022-10-01T00:18:13;10.32;;;7.75;;
42682;SDS011;28293;50.930;3.464;2022-10-01T00:20:40;8.95;;;7.13;;
42682;SDS011;28293;50.930;3.464;2022-10-01T00:23:07;10.90;;;7.45;;
42682;SDS011;28293;50.930;3.464;2022-10-01T00:25:37;10.77;;;8.43;;
42682;SDS011;28293;50.930;3.464;2022-10-01T00:28:03;12.88;;;7.68;;
42682;SDS011;28293;50.930;3.464;2022-10-01T00:30:29;9.65;;;7.68;;
42682;SDS011;28293;50.930;3.464;2022-10-01T00:32:55;10.13;;;7.60;;
42682;SDS011;28293;50.930;3.464;2022-10-01T00:35:21;11.30;;;7.88;;
42682;SDS011;28293;50.930;3.464;2022-10-01T00:37:47;12.75;;;7.85;;
42682;SDS011;28293;50.930;3.464;2022-10-01T00:40:15;11.55;;;8.23;;
42682;SDS011;28293;50.930;3.464;2022-10-01T00:42:42;11.02;;;8.07;;
42682;SDS011;28293;50.930;3.464;2022-10-01T00:45:09;10.93;;;7.40;;
42682;SDS011;28293;50.930;3.464;2022-10-01T00:47:37;9.57;;;7.45;;
42682;SDS011;28293;50.930;3.464;2022-10-01T00:50:08;9.02;;;7.63;;
42682;SDS011;28293;50.930;3.464;2022-10-01T00:52:42;9.63;;;7.00;;
42682;SDS011;28293;50.930;3.464;2022-10-01T00:55:14;9.82;;;6.63;;
42682;SDS011;28293;50.930;3.464;2022-10-01T00:57:43;9.80;;;7.35;;
42682;SDS011;28293;50.930;3.464;2022-10-01T01:00:10;9.00;;;6.68;;
42682;SDS011;28293;50.930;3.464;2022-10-01T01:02:37;8.77;;;6.60;;
42682;SDS011;28293;50.930;3.464;2022-10-01T01:05:03;9.48;;;7.00;;
42682;SDS011;28293;50.930;3.464;2022-10-01T01:07:30;9.68;;;6.72;;
42682;SDS011;28293;50.930;3.464;2022-10-01T01:09:56;7.95;;;6.07;;
42682;SDS011;28293;50.930;3.464;2022-10-01T01:15:19;11.20;;;6.72;;
42682;SDS011;28293;50.930;3.464;2022-10-01T01:26:00;7.43;;;5.45;;
42682;SDS011;28293;50.930;3.464;2022-10-01T01:28:47;8.00;;;5.35;;
42682;SDS011;28293;50.930;3.464;2022-10-01T01:31:18;7.20;;;5.03;;
42682;SDS011;28293;50.930;3.464;2022-10-01T01:33:50;7.30;;;4.60;;
42682;SDS011;28293;50.930;3.464;2022-10-01T01:36:24;9.82;;;4.75;;
42682;SDS011;28293;50.930;3.464;2022-10-01T01:38:56;7.35;;;4.65;;
42682;SDS011;28293;50.930;3.464;2022-10-01T01:41:24;6.28;;;4.25;;
42682;SDS011;28293;50.930;3.464;2022-10-01T01:43:56;7.32;;;4.03;;
42682;SDS011;28293;50.930;3.464;2022-10-01T01:46:26;6.95;;;4.32;;
42682;SDS011;28293;50.930;3.464;2022-10-01T01:48:58;8.13;;;4.40;;
42682;SDS011;28293;50.930;3.464;2022-10-01T01:51:39;6.07;;;4.10;;
42682;SDS011;28293;50.930;3.464;2022-10-01T01:54:09;6.53;;;4.50;;
42682;SDS011;28293;50.930;3.464;2022-10-01T01:56:35;8.02;;;4.50;;
42682;SDS011;28293;50.930;3.464;2022-10-01T01:59:01;7.53;;;3.95;;
42682;SDS011;28293;50.930;3.464;2022-10-01T02:01:38;6.55;;;3.90;;
42682;SDS011;28293;50.930;3.464;2022-10-01T02:04:09;6.43;;;3.80;;
42682;SDS011;28293;50.930;3.464;2022-10-01T02:14:46;5.68;;;3.97;;
42682;SDS011;28293;50.930;3.464;2022-10-01T02:17:30;6.20;;;4.07;;
42682;SDS011;28293;50.930;3.464;2022-10-01T02:20:21;6.35;;;4.50;;
42682;SDS011;28293;50.930;3.464;2022-10-01T02:22:55;9.90;;;4.40;;
42682;SDS011;28293;50.930;3.464;2022-10-01T02:25:26;6.50;;;3.88;;
42682;SDS011;28293;50.930;3.464;2022-10-01T02:27:58;9.18;;;4.13;;
42682;SDS011;28293;50.930;3.464;2022-10-01T02:30:29;6.22;;;4.25;;
42682;SDS011;28293;50.930;3.464;2022-10-01T02:32:56;6.65;;;4.20;;
42682;SDS011;28293;50.930;3.464;2022-10-01T02:35:24;7.30;;;4.50;;
42682;SDS011;28293;50.930;3.464;2022-10-01T02:37:51;7.65;;;4.88;;
42682;SDS011;28293;50.930;3.464;2022-10-01T02:40:21;7.65;;;4.50;;
42682;SDS011;28293;50.930;3.464;2022-10-01T02:42:51;8.02;;;4.68;;
42682;SDS011;28293;50.930;3.464;2022-10-01T02:45:21;6.90;;;4.38;;
42682;SDS011;28293;50.930;3.464;2022-10-01T02:47:50;7.53;;;5.45;;
42682;SDS011;28293;50.930;3.464;2022-10-01T02:50:21;8.10;;;4.47;;
42682;SDS011;28293;50.930;3.464;2022-10-01T02:52:52;6.68;;;4.32;;
42682;SDS011;28293;50.930;3.464;2022-10-01T02:55:25;7.30;;;4.40;;
42682;SDS011;28293;50.930;3.464;2022-10-01T02:57:56;6.78;;;3.97;;
42682;SDS011;28293;50.930;3.464;2022-10-01T03:00:22;7.50;;;3.92;;
42682;SDS011;28293;50.930;3.464;2022-10-01T03:02:49;5.95;;;4.10;;
42682;SDS011;28293;50.930;3.464;2022-10-01T03:05:15;8.02;;;4.03;;
42682;SDS011;28293;50.930;3.464;2022-10-01T03:07:41;5.82;;;4.05;;
42682;SDS011;28293;50.930;3.464;2022-10-01T03:10:08;6.20;;;3.53;;
42682;SDS011;28293;50.930;3.464;2022-10-01T03:12:35;6.50;;;3.13;;
42682;SDS011;28293;50.930;3.464;2022-10-01T03:15:01;6.13;;;3.60;;
42682;SDS011;28293;50.930;3.464;2022-10-01T03:17:27;6.68;;;3.47;;
42682;SDS011;28293;50.930;3.464;2022-10-01T03:19:53;5.90;;;3.15;;
42682;SDS011;28293;50.930;3.464;2022-10-01T03:22:20;8.32;;;3.63;;
42682;SDS011;28293;50.930;3.464;2022-10-01T03:24:49;5.38;;;3.67;;
42682;SDS011;28293;50.930;3.464;2022-10-01T03:27:16;6.57;;;3.30;;
42682;SDS011;28293;50.930;3.464;2022-10-01T03:29:43;5.28;;;3.22;;
42682;SDS011;28293;50.930;3.464;2022-10-01T03:32:08;7.05;;;3.33;;
42682;SDS011;28293;50.930;3.464;2022-10-01T03:34:34;5.10;;;3.30;;
42682;SDS011;28293;50.930;3.464;2022-10-01T03:37:00;5.75;;;3.25;;
42682;SDS011;28293;50.930;3.464;2022-10-01T03:39:26;5.20;;;3.10;;
42682;SDS011;28293;50.930;3.464;2022-10-01T03:41:52;5.53;;;3.30;;
42682;SDS011;28293;50.930;3.464;2022-10-01T03:44:17;5.20;;;2.92;;
42682;SDS011;28293;50.930;3.464;2022-10-01T03:46:43;5.45;;;3.17;;
42682;SDS011;28293;50.930;3.464;2022-10-01T03:49:09;5.90;;;3.42;;
42682;SDS011;28293;50.930;3.464;2022-10-01T03:51:34;5.18;;;3.45;;
42682;SDS011;28293;50.930;3.464;2022-10-01T03:54:01;4.43;;;2.97;;
42682;SDS011;28293;50.930;3.464;2022-10-01T03:56:27;4.93;;;2.95;;
42682;SDS011;28293;50.930;3.464;2022-10-01T03:58:53;5.80;;;3.22;;
42682;SDS011;28293;50.930;3.464;2022-10-01T04:01:19;5.45;;;3.30;;
42682;SDS011;28293;50.930;3.464;2022-10-01T04:03:45;5.75;;;3.35;;
42682;SDS011;28293;50.930;3.464;2022-10-01T04:06:11;6.38;;;3.78;;
42682;SDS011;28293;50.930;3.464;2022-10-01T04:08:37;6.40;;;3.70;;
42682;SDS011;28293;50.930;3.464;2022-10-01T04:11:03;7.65;;;4.15;;
42682;SDS011;28293;50.930;3.464;2022-10-01T04:13:30;5.38;;;3.35;;
42682;SDS011;28293;50.930;3.464;2022-10-01T04:15:55;7.15;;;4.05;;
42682;SDS011;28293;50.930;3.464;2022-10-01T04:18:21;6.50;;;3.70;;
42682;SDS011;28293;50.930;3.464;2022-10-01T04:20:47;8.27;;;4.70;;
42682;SDS011;28293;50.930;3.464;2022-10-01T04:23:13;6.78;;;4.18;;
42682;SDS011;28293;50.930;3.464;2022-10-01T04:25:39;6.80;;;4.10;;
42682;SDS011;28293;50.930;3.464;2022-10-01T04:28:06;6.25;;;3.90;;
42682;SDS011;28293;50.930;3.464;2022-10-01T04:30:35;7.63;;;3.78;;
42682;SDS011;28293;50.930;3.464;2022-10-01T04:33:03;7.05;;;4.43;;
42682;SDS011;28293;50.930;3.464;2022-10-01T04:35:30;7.90;;;4.32;;
42682;SDS011;28293;50.930;3.464;2022-10-01T04:37:57;7.88;;;3.85;;
42682;SDS011;28293;50.930;3.464;2022-10-01T04:40:30;8.57;;;4.20;;
42682;SDS011;28293;50.930;3.464;2022-10-01T04:42:58;6.28;;;4.00;;
42682;SDS011;28293;50.930;3.464;2022-10-01T04:45:24;9.45;;;4.57;;
42682;SDS011;28293;50.930;3.464;2022-10-01T04:47:50;6.60;;;3.90;;
42682;SDS011;28293;50.930;3.464;2022-10-01T04:50:18;6.57;;;3.95;;
42682;SDS011;28293;50.930;3.464;2022-10-01T04:52:44;7.20;;;4.05;;
42682;SDS011;28293;50.930;3.464;2022-10-01T04:55:12;12.15;;;5.43;;
42682;SDS011;28293;50.930;3.464;2022-10-01T04:57:39;8.55;;;4.50;;
42682;SDS011;28293;50.930;3.464;2022-10-01T05:00:06;8.15;;;4.50;;
42682;SDS011;28293;50.930;3.464;2022-10-01T05:02:34;7.28;;;4.40;;
42682;SDS011;28293;50.930;3.464;2022-10-01T05:05:00;9.25;;;4.15;;
42682;SDS011;28293;50.930;3.464;2022-10-01T05:07:28;11.85;;;4.88;;
42682;SDS011;28293;50.930;3.464;2022-10-01T05:09:55;11.10;;;4.57;;
42682;SDS011;28293;50.930;3.464;2022-10-01T05:12:20;8.20;;;4.18;;
42682;SDS011;28293;50.930;3.464;2022-10-01T05:14:46;9.07;;;4.82;;
42682;SDS011;28293;50.930;3.464;2022-10-01T05:17:12;7.47;;;4.45;;
42682;SDS011;28293;50.930;3.464;2022-10-01T05:19:42;12.38;;;5.00;;
42682;SDS011;28293;50.930;3.464;2022-10-01T05:22:08;13.82;;;5.82;;
42682;SDS011;28293;50.930;3.464;2022-10-01T05:24:33;8.75;;;4.55;;
42682;SDS011;28293;50.930;3.464;2022-10-01T05:26:59;10.00;;;4.28;;
42682;SDS011;28293;50.930;3.464;2022-10-01T05:29:25;12.35;;;4.72;;
42682;SDS011;28293;50.930;3.464;2022-10-01T05:31:50;13.05;;;5.70;;
42682;SDS011;28293;50.930;3.464;2022-10-01T05:34:16;14.30;;;5.72;;
42682;SDS011;28293;50.930;3.464;2022-10-01T05:36:42;12.25;;;5.95;;
42682;SDS011;28293;50.930;3.464;2022-10-01T05:39:08;16.30;;;6.80;;
42682;SDS011;28293;50.930;3.464;2022-10-01T05:41:33;17.27;;;6.75;;
42682;SDS011;28293;50.930;3.464;2022-10-01T05:43:59;15.15;;;6.38;;
42682;SDS011;28293;50.930;3.464;2022-10-01T05:46:26;12.32;;;6.10;;
42682;SDS011;28293;50.930;3.464;2022-10-01T05:48:52;15.23;;;6.93;;
42682;SDS011;28293;50.930;3.464;2022-10-01T05:51:18;14.43;;;7.00;;
42682;SDS011;28293;50.930;3.464;2022-10-01T05:53:43;15.15;;;7.82;;
42682;SDS011;28293;50.930;3.464;2022-10-01T05:56:12;20.35;;;9.57;;
42682;SDS011;28293;50.930;3.464;2022-10-01T05:58:39;20.33;;;10.63;;
42682;SDS011;28293;50.930;3.464;2022-10-01T06:01:04;22.63;;;10.80;;
42682;SDS011;28293;50.930;3.464;2022-10-01T06:03:30;20.67;;;10.25;;
42682;SDS011;28293;50.930;3.464;2022-10-01T06:05:56;23.02;;;9.40;;
42682;SDS011;28293;50.930;3.464;2022-10-01T06:08:22;25.23;;;9.00;;
42682;SDS011;28293;50.930;3.464;2022-10-01T06:10:47;19.35;;;8.68;;
42682;SDS011;28293;50.930;3.464;2022-10-01T06:13:13;21.80;;;8.02;;
42682;SDS011;28293;50.930;3.464;2022-10-01T06:15:42;25.38;;;7.68;;
42682;SDS011;28293;50.930;3.464;2022-10-01T06:18:09;19.52;;;7.07;;
42682;SDS011;28293;50.930;3.464;2022-10-01T06:20:36;18.17;;;6.50;;
42682;SDS011;28293;50.930;3.464;2022-10-01T06:23:04;22.70;;;6.68;;
42682;SDS011;28293;50.930;3.464;2022-10-01T06:25:32;19.60;;;6.10;;
42682;SDS011;28293;50.930;3.464;2022-10-01T06:28:00;16.38;;;5.38;;
42682;SDS011;28293;50.930;3.464;2022-10-01T06:30:27;15.68;;;5.28;;
42682;SDS011;28293;50.930;3.464;2022-10-01T06:32:59;22.70;;;5.65;;
42682;SDS011;28293;50.930;3.464;2022-10-01T06:35:29;20.70;;;5.47;;
42682;SDS011;28293;50.930;3.464;2022-10-01T06:37:56;22.65;;;5.60;;
42682;SDS011;28293;50.930;3.464;2022-10-01T06:40:22;21.90;;;5.25;;
42682;SDS011;28293;50.930;3.464;2022-10-01T06:42:48;16.40;;;5.38;;
42682;SDS011;28293;50.930;3.464;2022-10-01T06:45:15;15.73;;;4.80;;
42682;SDS011;28293;50.930;3.464;2022-10-01T06:47:42;18.10;;;5.13;;
42682;SDS011;28293;50.930;3.464;2022-10-01T06:50:16;14.95;;;4.97;;
42682;SDS011;28293;50.930;3.464;2022-10-01T06:52:42;23.23;;;5.35;;
42682;SDS011;28293;50.930;3.464;2022-10-01T06:55:14;20.60;;;5.53;;
42682;SDS011;28293;50.930;3.464;2022-10-01T06:57:45;23.63;;;6.53;;
42682;SDS011;28293;50.930;3.464;2022-10-01T07:00:11;19.77;;;5.45;;
42682;SDS011;28293;50.930;3.464;2022-10-01T07:02:38;23.30;;;6.10;;
42682;SDS011;28293;50.930;3.464;2022-10-01T07:05:05;19.42;;;5.45;;
42682;SDS011;28293;50.930;3.464;2022-10-01T07:07:33;17.30;;;5.28;;
42682;SDS011;28293;50.930;3.464;2022-10-01T07:10:01;25.40;;;6.40;;
42682;SDS011;28293;50.930;3.464;2022-10-01T07:12:29;19.98;;;5.60;;
42682;SDS011;28293;50.930;3.464;2022-10-01T07:14:55;20.95;;;6.57;;
42682;SDS011;28293;50.930;3.464;2022-10-01T07:17:21;16.85;;;5.15;;
42682;SDS011;28293;50.930;3.464;2022-10-01T07:19:47;19.65;;;5.07;;
42682;SDS011;28293;50.930;3.464;2022-10-01T07:22:12;24.15;;;5.43;;
42682;SDS011;28293;50.930;3.464;2022-10-01T07:24:38;22.85;;;6.00;;
42682;SDS011;28293;50.930;3.464;2022-10-01T07:27:04;22.58;;;5.63;;
42682;SDS011;28293;50.930;3.464;2022-10-01T07:29:30;19.95;;;5.65;;
42682;SDS011;28293;50.930;3.464;2022-10-01T07:31:57;21.92;;;5.85;;
42682;SDS011;28293;50.930;3.464;2022-10-01T07:34:23;20.73;;;5.22;;
42682;SDS011;28293;50.930;3.464;2022-10-01T07:36:50;21.25;;;5.65;;
42682;SDS011;28293;50.930;3.464;2022-10-01T07:39:15;22.63;;;5.93;;
42682;SDS011;28293;50.930;3.464;2022-10-01T07:41:41;20.35;;;5.28;;
42682;SDS011;28293;50.930;3.464;2022-10-01T07:44:07;24.13;;;5.57;;
42682;SDS011;28293;50.930;3.464;2022-10-01T07:46:36;20.17;;;5.18;;
42682;SDS011;28293;50.930;3.464;2022-10-01T07:49:02;19.83;;;5.35;;
42682;SDS011;28293;50.930;3.464;2022-10-01T07:51:28;20.90;;;6.65;;
42682;SDS011;28293;50.930;3.464;2022-10-01T07:53:54;17.88;;;5.10;;
42682;SDS011;28293;50.930;3.464;2022-10-01T07:56:19;19.10;;;5.63;;
42682;SDS011;28293;50.930;3.464;2022-10-01T07:58:45;24.52;;;5.30;;
42682;SDS011;28293;50.930;3.464;2022-10-01T08:01:11;22.80;;;5.95;;
42682;SDS011;28293;50.930;3.464;2022-10-01T08:03:37;26.58;;;6.55;;
42682;SDS011;28293;50.930;3.464;2022-10-01T08:06:02;23.77;;;6.72;;
42682;SDS011;28293;50.930;3.464;2022-10-01T08:08:30;29.60;;;7.53;;
42682;SDS011;28293;50.930;3.464;2022-10-01T08:10:55;25.15;;;7.07;;
42682;SDS011;28293;50.930;3.464;2022-10-01T08:13:21;21.90;;;6.05;;
42682;SDS011;28293;50.930;3.464;2022-10-01T08:15:49;19.95;;;5.57;;
42682;SDS011;28293;50.930;3.464;2022-10-01T08:18:17;19.30;;;5.93;;
42682;SDS011;28293;50.930;3.464;2022-10-01T08:20:44;18.67;;;5.82;;
42682;SDS011;28293;50.930;3.464;2022-10-01T08:23:11;19.92;;;4.90;;
42682;SDS011;28293;50.930;3.464;2022-10-01T08:25:38;19.90;;;5.50;;
42682;SDS011;28293;50.930;3.464;2022-10-01T08:28:06;19.48;;;4.60;;
42682;SDS011;28293;50.930;3.464;2022-10-01T08:30:33;24.30;;;5.05;;
42682;SDS011;28293;50.930;3.464;2022-10-01T08:33:01;19.45;;;4.55;;
42682;SDS011;28293;50.930;3.464;2022-10-01T08:35:27;22.83;;;4.97;;
42682;SDS011;28293;50.930;3.464;2022-10-01T08:37:54;19.90;;;4.72;;
42682;SDS011;28293;50.930;3.464;2022-10-01T08:40:24;22.05;;;5.53;;
42682;SDS011;28293;50.930;3.464;2022-10-01T08:42:55;16.30;;;3.95;;
42682;SDS011;28293;50.930;3.464;2022-10-01T08:45:27;22.73;;;4.65;;
42682;SDS011;28293;50.930;3.464;2022-10-01T08:48:00;17.75;;;4.95;;
42682;SDS011;28293;50.930;3.464;2022-10-01T08:50:39;24.45;;;4.32;;
42682;SDS011;28293;50.930;3.464;2022-10-01T08:53:08;21.38;;;4.55;;
42682;SDS011;28293;50.930;3.464;2022-10-01T08:55:39;16.50;;;4.50;;
42682;SDS011;28293;50.930;3.464;2022-10-01T08:58:06;17.23;;;4.72;;
42682;SDS011;28293;50.930;3.464;2022-10-01T09:00:38;18.58;;;4.78;;
42682;SDS011;28293;50.930;3.464;2022-10-01T09:03:08;21.30;;;4.93;;
42682;SDS011;28293;50.930;3.464;2022-10-01T09:08:23;21.33;;;4.95;;
42682;SDS011;28293;50.930;3.464;2022-10-01T09:20:20;25.15;;;6.43;;
42682;SDS011;28293;50.930;3.464;2022-10-01T09:25:25;21.23;;;5.72;;
42682;SDS011;28293;50.930;3.464;2022-10-01T09:27:55;14.85;;;5.55;;
42682;SDS011;28293;50.930;3.464;2022-10-01T09:30:31;20.70;;;6.20;;
42682;SDS011;28293;50.930;3.464;2022-10-01T09:33:09;16.05;;;4.90;;
42682;SDS011;28293;50.930;3.464;2022-10-01T09:40:51;18.85;;;4.70;;
42682;SDS011;28293;50.930;3.464;2022-10-01T09:43:20;17.05;;;4.80;;
42682;SDS011;28293;50.930;3.464;2022-10-01T09:45:55;17.38;;;4.13;;
42682;SDS011;28293;50.930;3.464;2022-10-01T09:48:24;18.70;;;4.95;;
42682;SDS011;28293;50.930;3.464;2022-10-01T09:50:56;17.10;;;4.70;;
42682;SDS011;28293;50.930;3.464;2022-10-01T09:53:34;16.88;;;5.53;;
42682;SDS011;28293;50.930;3.464;2022-10-01T09:56:27;17.45;;;5.55;;
42682;SDS011;28293;50.930;3.464;2022-10-01T09:58:54;19.00;;;5.72;;
42682;SDS011;28293;50.930;3.464;2022-10-01T10:01:43;19.13;;;3.92;;
42682;SDS011;28293;50.930;3.464;2022-10-01T10:04:18;20.35;;;4.43;;
42682;SDS011;28293;50.930;3.464;2022-10-01T10:06:45;17.95;;;4.78;;
42682;SDS011;28293;50.930;3.464;2022-10-01T10:09:15;19.35;;;4.45;;
42682;SDS011;28293;50.930;3.464;2022-10-01T10:11:43;23.08;;;4.40;;
42682;SDS011;28293;50.930;3.464;2022-10-01T10:14:20;16.55;;;3.70;;
42682;SDS011;28293;50.930;3.464;2022-10-01T10:17:06;18.35;;;4.45;;
42682;SDS011;28293;50.930;3.464;2022-10-01T10:19:37;14.77;;;3.90;;
42682;SDS011;28293;50.930;3.464;2022-10-01T10:22:18;14.82;;;3.22;;
42682;SDS011;28293;50.930;3.464;2022-10-01T10:24:47;14.63;;;3.40;;
42682;SDS011;28293;50.930;3.464;2022-10-01T10:27:26;17.38;;;3.78;;
42682;SDS011;28293;50.930;3.464;2022-10-01T10:32:41;14.13;;;2.90;;
42682;SDS011;28293;50.930;3.464;2022-10-01T10:35:13;16.17;;;3.60;;
42682;SDS011;28293;50.930;3.464;2022-10-01T10:37:50;14.18;;;3.53;;
42682;SDS011;28293;50.930;3.464;2022-10-01T10:40:19;13.75;;;4.18;;
42682;SDS011;28293;50.930;3.464;2022-10-01T10:42:51;14.52;;;4.40;;
42682;SDS011;28293;50.930;3.464;2022-10-01T10:45:20;16.20;;;3.55;;
42682;SDS011;28293;50.930;3.464;2022-10-01T10:47:53;21.33;;;4.45;;
42682;SDS011;28293;50.930;3.464;2022-10-01T10:50:25;14.75;;;3.63;;
42682;SDS011;28293;50.930;3.464;2022-10-01T10:52:57;14.70;;;3.13;;
42682;SDS011;28293;50.930;3.464;2022-10-01T10:57:49;13.77;;;3.20;;
42682;SDS011;28293;50.930;3.464;2022-10-01T11:00:16;13.05;;;3.03;;
42682;SDS011;28293;50.930;3.464;2022-10-01T11:02:57;22.02;;;4.43;;
42682;SDS011;28293;50.930;3.464;2022-10-01T11:05:27;21.58;;;4.30;;
42682;SDS011;28293;50.930;3.464;2022-10-01T11:07:59;16.48;;;4.30;;
42682;SDS011;28293;50.930;3.464;2022-10-01T11:10:39;18.05;;;4.40;;
42682;SDS011;28293;50.930;3.464;2022-10-01T11:13:22;20.10;;;6.38;;
42682;SDS011;28293;50.930;3.464;2022-10-01T11:16:04;20.05;;;4.25;;
42682;SDS011;28293;50.930;3.464;2022-10-01T11:21:29;15.82;;;3.95;;
42682;SDS011;28293;50.930;3.464;2022-10-01T11:26:54;19.13;;;4.13;;
42682;SDS011;28293;50.930;3.464;2022-10-01T11:35:23;11.90;;;3.65;;
42682;SDS011;28293;50.930;3.464;2022-10-01T11:37:59;17.60;;;3.90;;
42682;SDS011;28293;50.930;3.464;2022-10-01T11:41:15;15.25;;;3.47;;
42682;SDS011;28293;50.930;3.464;2022-10-01T11:43:44;12.98;;;3.28;;
42682;SDS011;28293;50.930;3.464;2022-10-01T11:46:34;15.27;;;3.60;;
42682;SDS011;28293;50.930;3.464;2022-10-01T11:49:38;15.00;;;3.90;;
42682;SDS011;28293;50.930;3.464;2022-10-01T11:58:15;17.75;;;3.67;;
42682;SDS011;28293;50.930;3.464;2022-10-01T12:04:04;14.48;;;3.92;;
42682;SDS011;28293;50.930;3.464;2022-10-01T12:06:53;16.75;;;4.05;;
42682;SDS011;28293;50.930;3.464;2022-10-01T12:09:25;13.35;;;3.30;;
42682;SDS011;28293;50.930;3.464;2022-10-01T12:12:02;17.85;;;3.53;;
42682;SDS011;28293;50.930;3.464;2022-10-01T12:14:36;15.77;;;2.97;;
42682;SDS011;28293;50.930;3.464;2022-10-01T12:17:25;13.15;;;2.92;;
42682;SDS011;28293;50.930;3.464;2022-10-01T12:20:22;12.55;;;2.50;;
42682;SDS011;28293;50.930;3.464;2022-10-01T12:23:01;13.25;;;2.85;;
42682;SDS011;28293;50.930;3.464;2022-10-01T12:25:36;13.40;;;3.28;;
42682;SDS011;28293;50.930;3.464;2022-10-01T12:28:28;14.60;;;3.05;;
42682;SDS011;28293;50.930;3.464;2022-10-01T12:31:10;12.63;;;2.90;;
42682;SDS011;28293;50.930;3.464;2022-10-01T12:33:58;12.52;;;2.40;;
42682;SDS011;28293;50.930;3.464;2022-10-01T12:36:47;11.93;;;2.67;;
42682;SDS011;28293;50.930;3.464;2022-10-01T12:44:55;15.30;;;3.35;;
42682;SDS011;28293;50.930;3.464;2022-10-01T12:47:46;15.75;;;3.33;;
42682;SDS011;28293;50.930;3.464;2022-10-01T12:53:16;12.25;;;2.40;;
42682;SDS011;28293;50.930;3.464;2022-10-01T13:01:54;12.07;;;2.83;;
42682;SDS011;28293;50.930;3.464;2022-10-01T13:04:43;13.65;;;2.50;;
42682;SDS011;28293;50.930;3.464;2022-10-01T13:07:30;15.13;;;2.15;;
42682;SDS011;28293;50.930;3.464;2022-10-01T13:15:28;10.95;;;2.38;;
42682;SDS011;28293;50.930;3.464;2022-10-01T13:20:42;12.10;;;2.90;;
42682;SDS011;28293;50.930;3.464;2022-10-01T13:26:02;10.90;;;2.42;;
42682;SDS011;28293;50.930;3.464;2022-10-01T13:31:12;8.32;;;1.98;;
42682;SDS011;28293;50.930;3.464;2022-10-01T13:33:40;11.95;;;2.58;;
42682;SDS011;28293;50.930;3.464;2022-10-01T13:36:06;9.38;;;2.00;;
42682;SDS011;28293;50.930;3.464;2022-10-01T13:41:17;10.43;;;2.78;;
42682;SDS011;28293;50.930;3.464;2022-10-01T13:43:50;10.90;;;2.28;;
42682;SDS011;28293;50.930;3.464;2022-10-01T13:46:32;12.90;;;2.60;;
42682;SDS011;28293;50.930;3.464;2022-10-01T13:49:29;10.88;;;2.35;;
42682;SDS011;28293;50.930;3.464;2022-10-01T13:54:23;14.27;;;2.92;;
42682;SDS011;28293;50.930;3.464;2022-10-01T13:56:52;9.82;;;2.22;;
42682;SDS011;28293;50.930;3.464;2022-10-01T13:59:31;13.95;;;2.53;;
42682;SDS011;28293;50.930;3.464;2022-10-01T14:01:58;10.73;;;2.95;;
42682;SDS011;28293;50.930;3.464;2022-10-01T14:04:37;13.38;;;2.60;;
42682;SDS011;28293;50.930;3.464;2022-10-01T14:07:13;13.45;;;3.70;;
42682;SDS011;28293;50.930;3.464;2022-10-01T14:09:43;35.85;;;4.43;;
42682;SDS011;28293;50.930;3.464;2022-10-01T14:12:16;11.02;;;2.65;;
42682;SDS011;28293;50.930;3.464;2022-10-01T14:18:24;13.88;;;3.05;;
42682;SDS011;28293;50.930;3.464;2022-10-01T14:21:01;11.10;;;2.58;;
42682;SDS011;28293;50.930;3.464;2022-10-01T14:23:55;14.93;;;2.90;;
42682;SDS011;28293;50.930;3.464;2022-10-01T14:26:50;12.75;;;2.85;;
42682;SDS011;28293;50.930;3.464;2022-10-01T14:34:55;13.02;;;2.90;;
42682;SDS011;28293;50.930;3.464;2022-10-01T14:37:49;9.05;;;2.25;;
42682;SDS011;28293;50.930;3.464;2022-10-01T14:40:18;13.23;;;3.38;;
42682;SDS011;28293;50.930;3.464;2022-10-01T14:42:59;13.75;;;2.55;;
42682;SDS011;28293;50.930;3.464;2022-10-01T14:45:34;12.18;;;2.63;;
42682;SDS011;28293;50.930;3.464;2022-10-01T14:48:00;11.70;;;2.45;;
42682;SDS011;28293;50.930;3.464;2022-10-01T14:50:27;10.50;;;2.72;;
42682;SDS011;28293;50.930;3.464;2022-10-01T14:52:56;10.10;;;2.72;;
42682;SDS011;28293;50.930;3.464;2022-10-01T14:55:22;11.13;;;2.67;;
42682;SDS011;28293;50.930;3.464;2022-10-01T14:57:50;12.70;;;2.47;;
42682;SDS011;28293;50.930;3.464;2022-10-01T15:00:19;11.18;;;2.47;;
42682;SDS011;28293;50.930;3.464;2022-10-01T15:02:48;12.27;;;3.13;;
42682;SDS011;28293;50.930;3.464;2022-10-01T15:05:37;11.38;;;2.53;;
42682;SDS011;28293;50.930;3.464;2022-10-01T15:08:21;11.98;;;3.28;;
42682;SDS011;28293;50.930;3.464;2022-10-01T15:11:03;10.32;;;2.88;;
42682;SDS011;28293;50.930;3.464;2022-10-01T15:13:36;12.63;;;2.60;;
42682;SDS011;28293;50.930;3.464;2022-10-01T15:16:20;10.85;;;2.40;;
42682;SDS011;28293;50.930;3.464;2022-10-01T15:18:49;10.32;;;2.50;;
42682;SDS011;28293;50.930;3.464;2022-10-01T15:21:18;11.07;;;2.72;;
42682;SDS011;28293;50.930;3.464;2022-10-01T15:23:48;12.20;;;2.22;;
42682;SDS011;28293;50.930;3.464;2022-10-01T15:26:17;15.52;;;3.22;;
42682;SDS011;28293;50.930;3.464;2022-10-01T15:28:47;13.32;;;3.60;;
42682;SDS011;28293;50.930;3.464;2022-10-01T15:31:13;11.02;;;2.72;;
42682;SDS011;28293;50.930;3.464;2022-10-01T15:33:40;12.25;;;2.95;;
42682;SDS011;28293;50.930;3.464;2022-10-01T15:36:14;11.75;;;2.60;;
42682;SDS011;28293;50.930;3.464;2022-10-01T15:38:42;10.77;;;2.60;;
42682;SDS011;28293;50.930;3.464;2022-10-01T15:41:17;13.32;;;3.08;;
42682;SDS011;28293;50.930;3.464;2022-10-01T15:43:48;12.35;;;2.72;;
42682;SDS011;28293;50.930;3.464;2022-10-01T15:46:16;11.15;;;2.75;;
42682;SDS011;28293;50.930;3.464;2022-10-01T15:51:33;16.00;;;3.50;;
42682;SDS011;28293;50.930;3.464;2022-10-01T15:54:00;14.98;;;3.30;;
42682;SDS011;28293;50.930;3.464;2022-10-01T15:56:32;12.95;;;2.75;;
42682;SDS011;28293;50.930;3.464;2022-10-01T15:59:02;11.70;;;2.53;;
42682;SDS011;28293;50.930;3.464;2022-10-01T16:01:41;13.88;;;3.05;;
42682;SDS011;28293;50.930;3.464;2022-10-01T16:04:08;10.95;;;3.10;;
42682;SDS011;28293;50.930;3.464;2022-10-01T16:06:39;13.40;;;3.35;;
42682;SDS011;28293;50.930;3.464;2022-10-01T16:11:53;13.30;;;3.28;;
42682;SDS011;28293;50.930;3.464;2022-10-01T16:19:50;14.73;;;3.47;;
42682;SDS011;28293;50.930;3.464;2022-10-01T16:24:50;15.02;;;3.22;;
42682;SDS011;28293;50.930;3.464;2022-10-01T16:27:33;14.05;;;2.85;;
42682;SDS011;28293;50.930;3.464;2022-10-01T16:32:33;13.43;;;3.67;;
42682;SDS011;28293;50.930;3.464;2022-10-01T16:37:43;17.60;;;3.75;;
42682;SDS011;28293;50.930;3.464;2022-10-01T16:40:09;15.90;;;3.75;;
42682;SDS011;28293;50.930;3.464;2022-10-01T16:42:36;12.13;;;3.28;;
42682;SDS011;28293;50.930;3.464;2022-10-01T16:45:03;15.02;;;3.45;;
42682;SDS011;28293;50.930;3.464;2022-10-01T16:47:30;14.88;;;3.60;;
42682;SDS011;28293;50.930;3.464;2022-10-01T16:49:55;15.70;;;3.97;;
42682;SDS011;28293;50.930;3.464;2022-10-01T16:52:21;13.80;;;3.47;;
42682;SDS011;28293;50.930;3.464;2022-10-01T16:54:47;12.73;;;3.58;;
42682;SDS011;28293;50.930;3.464;2022-10-01T16:57:15;12.75;;;3.33;;
42682;SDS011;28293;50.930;3.464;2022-10-01T16:59:41;13.93;;;3.60;;
42682;SDS011;28293;50.930;3.464;2022-10-01T17:02:13;11.38;;;3.60;;
42682;SDS011;28293;50.930;3.464;2022-10-01T17:04:39;12.18;;;3.03;;